Time;durP1;ratioP1;P1;durP2;ratioP2;P2;SDS_P1;SDS_P2;PMS_P1;PMS_P2;Temp;Humidity;BMP_temperature;BMP_pressure;BME280_temperature;BME280_humidity;BME280_pressure;Samples;Min_cycle;Max_cycle;Signal;HPM_P1;HPM_P2
2023/01/27 00:01:46;;;;;;;29.80;18.00;;;;;;;-2.73;88.82;95665.19;5053271;28;20205;-78
2023/01/27 00:04:12;;;;;;;32.20;18.37;;;;;;;-2.76;89.18;95657.69;5055278;28;20949;-78
2023/01/27 00:06:37;;;;;;;33.83;19.27;;;;;;;-2.72;89.14;95664.31;5044413;28;20229;-78
2023/01/27 00:09:02;;;;;;;28.53;16.37;;;;;;;-2.92;88.77;95657.50;5054292;28;20186;-78
2023/01/27 00:14:12;;;;;;;29.43;16.27;;;;;;;-3.04;90.60;95654.63;5050771;28;20715;-77
2023/01/27 00:16:37;;;;;;;27.67;16.77;;;;;;;-3.11;91.33;95651.53;5050569;28;20195;-78
2023/01/27 00:19:02;;;;;;;27.17;16.67;;;;;;;-2.93;91.11;95655.84;5047645;28;20178;-79
2023/01/27 00:26:56;;;;;;;27.73;17.20;;;;;;;-2.70;89.65;95654.88;5047573;28;20201;-78
2023/01/27 00:29:22;;;;;;;25.73;15.73;;;;;;;-2.66;89.16;95656.41;5054575;28;20600;-77
2023/01/27 00:34:31;;;;;;;27.47;14.87;;;;;;;-2.63;88.40;95663.91;5057351;28;20193;-79
2023/01/27 00:36:56;;;;;;;28.53;15.87;;;;;;;-2.65;88.12;95660.63;5052418;28;20186;-79
2023/01/27 00:39:21;;;;;;;26.50;14.93;;;;;;;-2.69;87.23;95663.34;5045089;28;20205;-79
2023/01/27 00:41:47;;;;;;;24.93;14.43;;;;;;;-2.60;87.93;95666.31;5047884;28;20565;-79
2023/01/27 00:44:12;;;;;;;27.07;15.43;;;;;;;-2.63;87.66;95663.91;5052677;28;20217;-79
2023/01/27 00:46:37;;;;;;;25.80;14.80;;;;;;;-2.92;88.48;95661.75;5042465;28;20281;-78
2023/01/27 00:49:03;;;;;;;26.07;14.70;;;;;;;-2.70;88.80;95661.69;5049415;28;20198;-77
2023/01/27 00:51:30;;;;;;;23.50;14.27;;;;;;;-2.66;87.87;95658.13;5048366;28;20209;-79
2023/01/27 00:53:55;;;;;;;22.90;14.93;;;;;;;-2.63;88.30;95660.53;5053033;28;20189;-79
2023/01/27 00:56:21;;;;;;;24.33;15.73;;;;;;;-2.67;87.38;95659.81;5056637;28;20182;-79
2023/01/27 00:58:46;;;;;;;23.60;15.33;;;;;;;-2.61;87.71;95662.13;5048411;28;20226;-79
2023/01/27 01:01:13;;;;;;;25.03;16.10;;;;;;;-2.69;88.22;95655.72;5047990;28;20216;-78
2023/01/27 01:03:39;;;;;;;27.60;15.63;;;;;;;-2.62;88.46;95662.19;5035136;28;20259;-77
2023/01/27 01:06:09;;;;;;;26.87;15.60;;;;;;;-2.54;88.12;95657.59;5051516;28;20187;-79
2023/01/27 01:08:36;;;;;;;23.37;14.87;;;;;;;-2.47;87.98;95658.16;5035727;28;20600;-79
2023/01/27 01:11:06;;;;;;;24.53;15.10;;;;;;;-2.53;87.22;95650.81;5054892;28;20209;-79
2023/01/27 01:13:32;;;;;;;25.40;15.93;;;;;;;-2.52;87.66;95660.91;5056492;28;20661;-79
2023/01/27 01:16:06;;;;;;;24.47;14.37;;;;;;;-2.60;87.85;95656.13;5038982;28;20197;-78
2023/01/27 01:18:32;;;;;;;23.33;13.20;;;;;;;-2.92;87.52;95654.13;5032022;28;20245;-78
2023/01/27 01:20:57;;;;;;;24.40;13.90;;;;;;;-2.78;88.50;95654.38;5053661;28;20210;-78
2023/01/27 01:23:22;;;;;;;24.83;15.23;;;;;;;-2.66;88.77;95665.75;5051642;28;20229;-78
2023/01/27 01:25:56;;;;;;;24.07;14.77;;;;;;;-2.74;89.01;95665.22;5052789;28;20646;-78
2023/01/27 01:28:21;;;;;;;19.13;12.53;;;;;;;-2.71;87.62;95660.88;5043176;28;20212;-79
2023/01/27 01:30:47;;;;;;;20.70;12.47;;;;;;;-2.82;87.21;95670.66;5052567;28;20195;-76
2023/01/27 01:33:13;;;;;;;20.43;12.97;;;;;;;-3.01;87.63;95662.94;5059988;28;20177;-77
2023/01/27 01:35:38;;;;;;;18.40;12.73;;;;;;;-2.72;87.80;95658.41;5067241;28;20162;-77
2023/01/27 01:38:04;;;;;;;21.87;12.93;;;;;;;-2.88;87.41;95658.19;5055901;28;20206;-76
2023/01/27 01:40:29;;;;;;;19.33;12.00;;;;;;;-3.03;87.45;95649.50;5068833;28;20280;-78
2023/01/27 01:42:59;;;;;;;20.70;12.47;;;;;;;-2.90;87.41;95654.91;5063821;28;20257;-77
2023/01/27 01:45:30;;;;;;;20.80;13.00;;;;;;;-2.67;86.88;95652.19;5052362;28;20259;-80
2023/01/27 01:48:10;;;;;;;22.00;12.53;;;;;;;-2.62;86.24;95650.31;5058542;28;20186;-79
2023/01/27 01:50:37;;;;;;;19.73;13.23;;;;;;;-2.67;86.67;95639.50;5052340;28;20214;-79
2023/01/27 01:53:03;;;;;;;18.70;12.50;;;;;;;-2.53;86.64;95645.72;5043950;28;20269;-78
2023/01/27 01:55:29;;;;;;;23.07;12.77;;;;;;;-2.44;86.05;95642.78;5044912;28;20784;-77
2023/01/27 01:57:54;;;;;;;23.80;14.17;;;;;;;-2.49;86.37;95637.88;5040229;28;20198;-78
2023/01/27 02:00:20;;;;;;;22.90;14.07;;;;;;;-2.45;87.17;95647.03;5047954;28;20297;-77
2023/01/27 02:02:46;;;;;;;20.73;13.17;;;;;;;-2.45;87.07;95646.22;5033411;28;20186;-79
2023/01/27 02:05:25;;;;;;;21.00;13.17;;;;;;;-2.43;86.84;95636.78;5047667;28;20202;-77
2023/01/27 02:08:06;;;;;;;19.93;12.87;;;;;;;-2.41;86.31;95640.09;5035396;28;20186;-78
2023/01/27 02:10:32;;;;;;;20.70;12.23;;;;;;;-2.55;87.18;95638.16;5049403;28;20210;-79
2023/01/27 02:12:57;;;;;;;19.43;11.53;;;;;;;-2.44;86.87;95637.69;5046318;28;20174;-80
2023/01/27 02:15:23;;;;;;;19.37;12.47;;;;;;;-2.62;87.01;95637.59;5041198;28;20179;-79
2023/01/27 02:17:48;;;;;;;23.10;13.80;;;;;;;-2.48;87.47;95642.06;5050992;28;20185;-78
2023/01/27 02:20:26;;;;;;;20.73;14.03;;;;;;;-2.50;87.51;95632.84;5028983;28;20201;-79
2023/01/27 02:22:54;;;;;;;19.00;12.80;;;;;;;-2.54;87.31;95641.53;5045978;28;20192;-79
2023/01/27 02:25:34;;;;;;;20.20;12.57;;;;;;;-2.44;86.55;95642.78;5059522;28;20209;-80
2023/01/27 02:28:03;;;;;;;20.97;13.07;;;;;;;-2.45;87.76;95641.13;5053510;28;20230;-79
2023/01/27 02:30:28;;;;;;;19.13;12.83;;;;;;;-2.41;86.86;95640.09;5049043;28;20673;-78
2023/01/27 02:32:54;;;;;;;22.33;12.57;;;;;;;-2.45;87.11;95638.59;5049715;28;20191;-78
2023/01/27 02:35:36;;;;;;;17.17;13.17;;;;;;;-2.62;87.07;95641.84;5054427;28;20798;-79
2023/01/27 02:38:03;;;;;;;20.00;12.93;;;;;;;-2.53;88.25;95638.91;5066874;28;20198;-78
2023/01/27 02:40:29;;;;;;;19.17;11.83;;;;;;;-2.65;88.51;95640.28;5055614;28;20217;-81
2023/01/27 02:42:55;;;;;;;21.50;12.73;;;;;;;-2.72;89.83;95641.44;5054066;28;20185;-78
2023/01/27 02:45:20;;;;;;;19.90;12.77;;;;;;;-2.61;88.61;95641.78;5057418;28;20254;-80
2023/01/27 02:47:46;;;;;;;20.33;12.47;;;;;;;-2.58;88.97;95643.34;5059935;28;20309;-79
2023/01/27 02:50:11;;;;;;;24.00;14.40;;;;;;;-2.61;88.06;95631.59;5043556;28;20214;-78
2023/01/27 02:52:36;;;;;;;20.20;14.03;;;;;;;-2.77;88.75;95635.69;5041046;28;20181;-79
2023/01/27 02:55:02;;;;;;;21.73;12.63;;;;;;;-2.69;88.84;95630.28;5047595;28;20179;-79
2023/01/27 02:57:27;;;;;;;22.70;14.87;;;;;;;-2.65;88.13;95635.19;5029130;28;20178;-80
2023/01/27 02:59:53;;;;;;;20.90;13.97;;;;;;;-2.80;89.28;95625.66;5046142;28;20195;-79
2023/01/27 03:02:21;;;;;;;23.17;12.63;;;;;;;-2.82;89.44;95624.91;5050764;28;20186;-80
2023/01/27 03:04:47;;;;;;;20.63;13.50;;;;;;;-2.90;90.47;95624.41;5052806;28;20637;-79
2023/01/27 03:07:12;;;;;;;20.10;13.00;;;;;;;-2.66;89.65;95622.53;5049555;28;20269;-80
2023/01/27 03:09:38;;;;;;;20.57;13.87;;;;;;;-2.73;89.43;95621.97;5049122;28;20268;-79
2023/01/27 03:12:18;;;;;;;19.07;13.30;;;;;;;-2.62;89.10;95624.88;5048733;28;20217;-78
2023/01/27 03:20:12;;;;;;;20.20;14.40;;;;;;;-2.71;89.99;95630.38;5049962;28;20220;-79
2023/01/27 03:22:37;;;;;;;24.00;14.60;;;;;;;-2.75;90.33;95639.00;5047183;28;20206;-79
2023/01/27 03:25:02;;;;;;;21.10;13.27;;;;;;;-2.67;89.25;95642.03;5047043;28;20228;-80
2023/01/27 03:27:28;;;;;;;20.17;13.23;;;;;;;-2.85;90.50;95638.56;5046077;28;20645;-79
2023/01/27 03:29:56;;;;;;;23.80;14.63;;;;;;;-2.72;90.17;95638.88;5057099;28;20229;-80
2023/01/27 03:32:27;;;;;;;21.37;13.50;;;;;;;-2.88;90.58;95640.41;5055695;28;20194;-79
2023/01/27 03:34:53;;;;;;;22.07;13.57;;;;;;;-2.82;90.85;95640.16;5060472;28;20180;-78
2023/01/27 03:48:19;;;;;;;26.23;14.60;;;;;;;-2.69;90.47;95630.28;5059938;28;20205;-80
2023/01/27 03:50:51;;;;;;;22.00;14.23;;;;;;;-2.82;91.23;95634.25;5068867;28;20195;-78
2023/01/27 03:53:17;;;;;;;24.00;14.40;;;;;;;-2.79;91.43;95632.41;5058056;28;20208;-79
2023/01/27 03:55:42;;;;;;;23.63;14.93;;;;;;;-2.65;91.23;95635.19;5051976;28;20202;-79
2023/01/27 03:58:18;;;;;;;23.27;15.27;;;;;;;-2.59;91.04;95640.00;5048335;28;20194;-79
2023/01/27 04:01:04;;;;;;;26.30;16.07;;;;;;;-2.59;90.27;95644.25;5046281;28;20214;-80
2023/01/27 04:09:04;;;;;;;24.27;14.80;;;;;;;-2.53;91.26;95663.50;5055586;28;20205;-79
2023/01/27 04:14:13;;;;;;;23.80;15.83;;;;;;;-2.79;92.71;95657.81;5052719;28;20177;-80
2023/01/27 04:16:39;;;;;;;23.43;14.97;;;;;;;-2.87;93.10;95664.94;5047150;28;20183;-78
2023/01/27 04:19:06;;;;;;;25.30;15.57;;;;;;;-2.79;92.34;95660.34;5035656;28;20186;-77
2023/01/27 04:21:31;;;;;;;26.60;16.30;;;;;;;-2.86;92.32;95658.97;5042819;28;20206;-78
2023/01/27 04:23:57;;;;;;;26.10;15.63;;;;;;;-2.82;92.99;95663.03;5047355;28;20198;-79
2023/01/27 04:26:22;;;;;;;26.20;15.30;;;;;;;-2.60;91.34;95663.78;5041829;28;20595;-78
2023/01/27 04:28:48;;;;;;;25.10;15.60;;;;;;;-2.76;92.37;95660.22;5051795;28;20594;-79
2023/01/27 04:31:17;;;;;;;23.53;15.67;;;;;;;-2.82;92.31;95657.97;5031289;28;20222;-80
2023/01/27 04:33:43;;;;;;;28.43;16.33;;;;;;;-2.75;93.00;95659.31;5047985;28;20183;-79
2023/01/27 04:36:09;;;;;;;26.53;15.73;;;;;;;-2.59;92.34;95657.78;5050314;28;20653;-79
2023/01/27 04:38:35;;;;;;;28.80;17.00;;;;;;;-2.52;92.69;95668.53;5043752;28;20223;-79
2023/01/27 04:41:00;;;;;;;30.03;17.77;;;;;;;-2.87;92.86;95659.84;5043062;28;20221;-79
2023/01/27 04:43:25;;;;;;;31.67;17.90;;;;;;;-2.69;93.30;95666.69;5050691;28;20219;-78
2023/01/27 04:45:51;;;;;;;26.53;16.43;;;;;;;-2.59;92.23;95662.06;5051013;28;20188;-80
2023/01/27 04:48:16;;;;;;;27.83;17.07;;;;;;;-2.65;92.40;95664.84;5059713;28;20197;-79
2023/01/27 04:50:41;;;;;;;26.40;16.90;;;;;;;-2.62;92.22;95660.47;5043573;28;20207;-79
2023/01/27 04:53:07;;;;;;;26.13;16.73;;;;;;;-2.66;92.02;95658.94;5054101;28;20209;-80
2023/01/27 04:55:32;;;;;;;33.10;18.50;;;;;;;-2.65;92.58;95663.16;5051229;28;20193;-80
2023/01/27 04:57:57;;;;;;;31.67;19.33;;;;;;;-2.83;93.41;95663.91;5047607;28;20190;-79
2023/01/27 05:00:22;;;;;;;32.00;18.03;;;;;;;-3.00;94.59;95663.81;5050445;28;20273;-80
2023/01/27 05:02:48;;;;;;;28.30;17.50;;;;;;;-2.84;93.89;95674.97;5053429;28;20182;-79
2023/01/27 05:05:13;;;;;;;30.73;18.23;;;;;;;-2.80;93.03;95668.88;5045300;28;20205;-80
2023/01/27 05:07:38;;;;;;;25.70;16.23;;;;;;;-2.88;94.10;95669.19;5052781;28;20178;-79
2023/01/27 05:10:05;;;;;;;32.47;18.03;;;;;;;-2.71;93.43;95671.03;5051145;28;20213;-79
2023/01/27 05:12:31;;;;;;;29.07;17.97;;;;;;;-2.76;93.17;95662.75;5055954;28;20186;-80
2023/01/27 05:14:56;;;;;;;29.03;17.80;;;;;;;-2.88;94.23;95663.28;5043695;28;20182;-78
2023/01/27 05:17:21;;;;;;;30.60;18.50;;;;;;;-2.66;93.64;95666.56;5044188;28;20178;-79
2023/01/27 05:19:46;;;;;;;31.50;18.57;;;;;;;-2.71;93.15;95665.13;5051895;28;20205;-80
2023/01/27 05:22:12;;;;;;;34.47;17.83;;;;;;;-2.77;93.67;95661.13;5047281;28;20213;-79
2023/01/27 05:24:37;;;;;;;32.30;18.10;;;;;;;-2.59;93.53;95667.13;5049561;28;20198;-79
2023/01/27 05:27:03;;;;;;;34.37;19.73;;;;;;;-2.55;93.34;95667.84;5035697;28;20193;-79
2023/01/27 05:29:29;;;;;;;33.00;18.63;;;;;;;-2.89;94.00;95669.25;5045738;28;20551;-79
2023/01/27 05:31:54;;;;;;;29.57;18.03;;;;;;;-2.78;93.85;95667.09;5058590;28;20229;-78
2023/01/27 05:34:19;;;;;;;33.03;18.80;;;;;;;-2.72;93.73;95671.09;5033581;28;20182;-79
2023/01/27 05:36:44;;;;;;;32.47;18.30;;;;;;;-2.88;94.88;95665.81;5042383;28;20181;-78
2023/01/27 05:39:10;;;;;;;37.07;18.87;;;;;;;-2.82;94.32;95672.38;5033504;28;20268;-78
2023/01/27 05:41:36;;;;;;;38.80;18.60;;;;;;;-2.77;93.88;95673.00;5054992;28;20207;-79
2023/01/27 05:44:01;;;;;;;35.70;19.37;;;;;;;-3.00;94.71;95671.44;5048434;28;20195;-79
2023/01/27 05:46:28;;;;;;;33.37;18.80;;;;;;;-2.87;94.87;95677.63;5043877;28;20186;-80
2023/01/27 05:48:55;;;;;;;27.73;16.77;;;;;;;-3.17;96.47;95677.19;5048550;28;20234;-79
2023/01/27 05:51:22;;;;;;;27.80;17.60;;;;;;;-3.28;97.77;95685.22;5044977;28;20210;-78
2023/01/27 05:53:48;;;;;;;29.97;17.60;;;;;;;-3.06;97.03;95686.91;5039748;28;20239;-79
2023/01/27 05:56:16;;;;;;;34.07;16.97;;;;;;;-2.95;95.99;95692.38;5047626;28;20186;-78
2023/01/27 05:58:41;;;;;;;29.47;18.87;;;;;;;-2.81;95.31;95692.66;5043306;28;20236;-77
2023/01/27 06:01:17;;;;;;;33.73;18.93;;;;;;;-2.96;96.02;95695.81;5049059;28;20265;-77
2023/01/27 06:03:43;;;;;;;29.07;18.27;;;;;;;-2.92;95.48;95692.25;5059420;28;20212;-79
2023/01/27 06:06:09;;;;;;;29.37;17.33;;;;;;;-2.88;95.23;95699.69;5064449;28;20186;-78
2023/01/27 06:08:35;;;;;;;27.13;16.30;;;;;;;-3.05;96.34;95693.66;5059887;28;20197;-78
2023/01/27 06:11:01;;;;;;;32.03;18.40;;;;;;;-2.81;96.05;95690.09;5053867;28;20210;-79
2023/01/27 06:13:26;;;;;;;35.57;19.97;;;;;;;-2.72;95.38;95697.34;5059363;28;20296;-79
2023/01/27 06:15:52;;;;;;;36.20;20.63;;;;;;;-2.80;95.54;95691.75;5052399;28;20186;-77
2023/01/27 06:18:18;;;;;;;30.27;17.63;;;;;;;-2.78;96.16;95692.50;5057812;28;20205;-78
2023/01/27 06:20:43;;;;;;;30.13;17.00;;;;;;;-2.81;95.59;95695.19;5048550;28;20198;-78
2023/01/27 06:23:10;;;;;;;32.63;18.07;;;;;;;-3.09;96.83;95710.75;5045833;28;20179;-78
2023/01/27 06:25:40;;;;;;;30.57;18.00;;;;;;;-2.95;96.66;95708.44;5036922;28;20193;-77
2023/01/27 06:28:07;;;;;;;31.97;19.10;;;;;;;-2.81;95.92;95709.63;5067254;28;20198;-76
2023/01/27 06:30:35;;;;;;;27.80;15.93;;;;;;;-2.91;96.53;95704.91;5064382;28;20202;-77
2023/01/27 06:33:01;;;;;;;28.77;17.30;;;;;;;-2.93;96.42;95710.91;5096146;28;20216;-77
2023/01/27 06:35:26;;;;;;;27.80;16.30;;;;;;;-2.94;96.50;95705.00;5057826;28;20191;-77
2023/01/27 06:37:52;;;;;;;30.87;16.53;;;;;;;-2.76;96.42;95688.19;5050689;28;20190;-79
2023/01/27 06:40:17;;;;;;;38.67;21.53;;;;;;;-2.62;95.70;95693.53;5049088;28;20217;-78
2023/01/27 06:42:43;;;;;;;31.00;18.73;;;;;;;-2.84;95.38;95697.84;5057874;28;20193;-77
2023/01/27 06:45:10;;;;;;;35.73;19.63;;;;;;;-2.79;95.44;95705.28;5077909;28;20280;-77
2023/01/27 06:47:35;;;;;;;30.10;17.07;;;;;;;-2.73;95.41;95707.59;5047865;28;20179;-77
2023/01/27 06:50:01;;;;;;;32.10;16.20;;;;;;;-2.94;95.19;95706.72;5052248;28;20265;-78
2023/01/27 06:52:26;;;;;;;27.97;16.50;;;;;;;-2.80;94.90;95712.09;5038815;28;20195;-77
2023/01/27 06:54:51;;;;;;;25.30;15.67;;;;;;;-2.87;94.98;95726.75;5061332;28;20175;-78
2023/01/27 06:57:16;;;;;;;25.67;15.73;;;;;;;-2.96;95.38;95724.59;5046950;28;20183;-76
2023/01/27 06:59:42;;;;;;;28.50;17.53;;;;;;;-2.86;95.75;95738.56;5053997;28;20205;-77
2023/01/27 07:02:11;;;;;;;34.30;19.27;;;;;;;-2.72;95.01;95729.56;5058585;28;20186;-77
2023/01/27 07:04:36;;;;;;;36.00;18.33;;;;;;;-2.82;95.52;95730.84;5048451;28;20240;-77
2023/01/27 07:07:02;;;;;;;38.53;21.03;;;;;;;-2.76;94.70;95740.72;5048931;28;20185;-78
2023/01/27 07:09:28;;;;;;;36.03;20.63;;;;;;;-2.93;96.25;95738.88;5061715;28;20176;-78
2023/01/27 07:11:53;;;;;;;40.90;20.13;;;;;;;-2.72;95.29;95737.19;5037735;28;20204;-78
2023/01/27 07:14:18;;;;;;;31.57;17.63;;;;;;;-2.95;95.82;95735.56;5062928;28;20187;-78
2023/01/27 07:16:44;;;;;;;32.77;17.97;;;;;;;-2.88;95.73;95744.59;5041877;28;20193;-78
2023/01/27 07:19:11;;;;;;;34.67;17.63;;;;;;;-2.94;95.75;95749.94;5048362;28;20186;-77
2023/01/27 07:21:36;;;;;;;50.67;23.77;;;;;;;-2.83;95.53;95752.03;5056078;28;20211;-77
2023/01/27 07:24:02;;;;;;;45.50;21.87;;;;;;;-2.93;96.40;95752.41;5050427;28;20198;-78
2023/01/27 07:26:27;;;;;;;54.47;26.93;;;;;;;-2.82;95.78;95764.69;5054537;28;20181;-78
2023/01/27 07:28:54;;;;;;;37.37;20.97;;;;;;;-2.83;95.77;95757.13;5060447;28;20246;-78
2023/01/27 07:31:19;;;;;;;34.77;19.53;;;;;;;-3.00;95.81;95755.28;5046033;28;20265;-79
2023/01/27 07:33:45;;;;;;;32.67;16.73;;;;;;;-2.89;96.16;95758.22;5050284;28;20513;-78
2023/01/27 07:36:10;;;;;;;31.07;16.00;;;;;;;-2.90;95.39;95767.53;5056750;28;20253;-80
2023/01/27 07:38:35;;;;;;;27.10;15.43;;;;;;;-2.84;95.79;95776.63;5061935;28;20209;-78
2023/01/27 07:41:04;;;;;;;34.53;18.27;;;;;;;-2.78;95.50;95778.94;5059907;28;20211;-78
2023/01/27 07:43:29;;;;;;;31.17;17.47;;;;;;;-2.76;95.90;95777.16;5035961;28;20202;-79
2023/01/27 07:45:55;;;;;;;29.40;16.47;;;;;;;-2.93;96.30;95780.34;5050638;28;20187;-79
2023/01/27 07:48:21;;;;;;;27.37;16.13;;;;;;;-2.83;95.03;95785.91;5053994;28;20178;-79
2023/01/27 07:50:46;;;;;;;31.77;16.93;;;;;;;-2.71;96.08;95782.06;5054648;28;20301;-78
2023/01/27 07:53:11;;;;;;;26.43;15.67;;;;;;;-2.78;95.75;95790.81;5056076;28;20191;-80
2023/01/27 07:55:37;;;;;;;27.47;15.90;;;;;;;-2.77;95.13;95787.38;5058795;28;20326;-81
2023/01/27 07:58:02;;;;;;;28.70;15.70;;;;;;;-2.72;95.65;95783.78;5050994;28;20301;-78
2023/01/27 08:00:28;;;;;;;24.57;14.70;;;;;;;-2.69;94.62;95787.91;5057285;28;20209;-78
2023/01/27 08:02:54;;;;;;;33.13;17.77;;;;;;;-2.89;95.57;95796.31;5045479;28;20713;-78
2023/01/27 08:05:19;;;;;;;25.63;14.40;;;;;;;-2.83;95.29;95796.06;5043171;28;20293;-77
2023/01/27 08:07:45;;;;;;;26.00;14.83;;;;;;;-2.65;94.68;95802.97;5047892;28;20182;-78
2023/01/27 08:10:10;;;;;;;24.13;14.20;;;;;;;-2.74;94.49;95798.28;5057770;28;20205;-79
2023/01/27 08:12:35;;;;;;;21.73;13.43;;;;;;;-2.74;94.79;95790.63;5055877;28;20227;-78
2023/01/27 08:15:01;;;;;;;25.20;14.13;;;;;;;-2.73;94.21;95791.47;5045792;28;20191;-78
2023/01/27 08:17:26;;;;;;;20.00;13.43;;;;;;;-2.62;93.82;95797.75;5058071;28;20315;-78
2023/01/27 08:19:51;;;;;;;24.07;14.40;;;;;;;-2.62;93.89;95800.31;5056371;28;20272;-78
2023/01/27 08:22:20;;;;;;;23.77;13.47;;;;;;;-2.80;95.21;95798.50;5040562;28;20183;-78
2023/01/27 08:24:45;;;;;;;23.63;13.27;;;;;;;-2.55;93.28;95803.44;5052367;28;20210;-78
2023/01/27 08:27:11;;;;;;;19.97;12.87;;;;;;;-2.70;93.19;95804.88;5043783;28;20196;-79
2023/01/27 08:29:36;;;;;;;23.97;14.80;;;;;;;-2.57;93.14;95803.47;5041467;28;20303;-77
2023/01/27 08:32:02;;;;;;;21.47;13.23;;;;;;;-2.69;93.94;95806.53;5042025;28;20198;-78
2023/01/27 08:34:27;;;;;;;20.20;13.60;;;;;;;-2.52;93.74;95810.09;5053200;28;20835;-78
2023/01/27 08:36:52;;;;;;;27.13;15.27;;;;;;;-2.42;92.71;95802.03;5051571;28;20274;-78
2023/01/27 08:39:18;;;;;;;27.77;16.13;;;;;;;-2.50;92.60;95806.59;5033063;28;20194;-79
2023/01/27 08:41:43;;;;;;;27.87;15.80;;;;;;;-2.33;92.39;95808.44;5042823;28;20193;-78
2023/01/27 08:44:08;;;;;;;25.93;14.80;;;;;;;-2.26;92.34;95803.94;5056173;28;20238;-79
2023/01/27 08:46:34;;;;;;;24.87;14.77;;;;;;;-2.51;92.97;95810.03;5052565;28;20236;-79
2023/01/27 08:48:59;;;;;;;26.93;15.70;;;;;;;-2.23;91.64;95812.25;5047043;28;20218;-79
2023/01/27 08:51:24;;;;;;;28.20;16.73;;;;;;;-2.24;92.12;95813.16;5053930;28;20229;-79
2023/01/27 08:53:50;;;;;;;26.10;15.77;;;;;;;-2.19;91.79;95821.44;5055709;28;20178;-79
2023/01/27 08:56:15;;;;;;;25.50;14.53;;;;;;;-2.22;91.64;95816.47;5047405;28;20204;-78
2023/01/27 08:58:41;;;;;;;25.10;15.90;;;;;;;-2.30;92.23;95824.44;5059575;28;20205;-77
2023/01/27 09:01:07;;;;;;;23.03;13.57;;;;;;;-2.05;91.80;95816.56;5044341;28;20221;-79
2023/01/27 09:03:33;;;;;;;26.53;15.57;;;;;;;-2.19;92.55;95826.53;5052120;28;20213;-78
2023/01/27 09:05:58;;;;;;;21.47;13.23;;;;;;;-2.24;91.65;95819.97;5043321;28;20244;-78
2023/01/27 09:08:24;;;;;;;30.20;14.17;;;;;;;-2.46;92.20;95818.31;5054169;28;20257;-79
2023/01/27 09:10:49;;;;;;;22.23;13.10;;;;;;;-2.42;92.01;95830.00;5032390;28;20762;-77
2023/01/27 09:13:15;;;;;;;18.20;11.53;;;;;;;-2.41;90.77;95825.75;5052340;28;20658;-76
2023/01/27 09:15:42;;;;;;;20.20;12.50;;;;;;;-2.22;90.61;95826.63;5042623;28;20246;-78
2023/01/27 09:18:08;;;;;;;20.10;13.20;;;;;;;-2.32;91.03;95823.66;5055457;28;20191;-77
2023/01/27 09:20:35;;;;;;;20.47;12.13;;;;;;;-2.37;91.08;95824.75;5041288;28;20226;-77
2023/01/27 09:23:01;;;;;;;22.87;13.37;;;;;;;-2.41;90.93;95823.19;5067881;28;20173;-77
2023/01/27 09:25:26;;;;;;;25.33;14.33;;;;;;;-2.31;91.41;95820.22;5061909;28;20265;-80
2023/01/27 09:27:56;;;;;;;24.43;14.83;;;;;;;-2.44;92.32;95824.16;5062851;28;20186;-77
2023/01/27 09:30:22;;;;;;;20.43;12.83;;;;;;;-2.31;91.37;95827.84;5059038;28;20190;-77
2023/01/27 09:32:48;;;;;;;22.60;14.30;;;;;;;-2.39;91.67;95837.50;5066669;28;20187;-77
2023/01/27 09:35:13;;;;;;;24.23;15.73;;;;;;;-2.41;92.51;95833.38;5060669;28;20174;-78
2023/01/27 09:37:48;;;;;;;19.07;11.50;;;;;;;-2.31;91.61;95835.47;5041540;28;20190;-79
2023/01/27 09:40:42;;;;;;;19.87;12.30;;;;;;;-2.45;92.17;95836.94;5068748;28;20202;-78
2023/01/27 09:43:43;;;;;;;21.40;13.80;;;;;;;-2.38;92.09;95830.72;5054018;28;20242;-78
2023/01/27 09:46:20;;;;;;;21.87;12.97;;;;;;;-2.26;91.17;95827.66;5049237;28;20288;-78
2023/01/27 09:49:14;;;;;;;23.47;13.90;;;;;;;-2.00;90.77;95834.22;5053448;28;20346;-78
2023/01/27 09:51:59;;;;;;;24.80;13.17;;;;;;;-1.92;89.46;95838.97;5046125;28;20213;-79
2023/01/27 09:54:33;;;;;;;16.80;11.43;;;;;;;-2.00;89.69;95847.75;5048015;28;20549;-79
2023/01/27 09:57:27;;;;;;;23.03;15.07;;;;;;;-2.00;90.14;95849.47;5044612;28;20210;-78
2023/01/27 10:00:26;;;;;;;24.37;14.07;;;;;;;-1.84;89.40;95840.31;5050045;28;20312;-79
2023/01/27 10:03:22;;;;;;;25.00;15.63;;;;;;;-2.15;89.54;95842.47;5042329;28;20552;-79
2023/01/27 10:06:09;;;;;;;22.47;12.33;;;;;;;-1.93;89.01;95842.41;5051740;28;20204;-78
2023/01/27 10:09:22;;;;;;;20.37;12.43;;;;;;;-1.84;88.88;95839.47;5058239;28;20586;-78
2023/01/27 10:12:15;;;;;;;19.30;11.87;;;;;;;-1.92;89.39;95833.88;5000096;28;20242;-78
2023/01/27 10:14:48;;;;;;;21.00;12.93;;;;;;;-1.95;89.84;95849.28;5015238;28;20185;-78
2023/01/27 10:17:31;;;;;;;23.00;13.53;;;;;;;-1.87;89.09;95845.50;5002479;28;20243;-78
2023/01/27 10:20:19;;;;;;;21.37;12.10;;;;;;;-2.04;89.68;95846.22;5015936;28;20199;-78
2023/01/27 10:22:54;;;;;;;21.93;11.87;;;;;;;-1.79;89.03;95828.19;5019050;28;20207;-78
2023/01/27 10:25:27;;;;;;;21.77;11.70;;;;;;;-1.56;87.54;95837.38;5001584;28;20210;-78
2023/01/27 10:27:57;;;;;;;21.53;12.23;;;;;;;-1.44;87.31;95838.56;5002024;28;20197;-79
2023/01/27 10:30:33;;;;;;;22.13;13.10;;;;;;;-1.50;87.25;95834.56;5004967;28;20254;-79
2023/01/27 10:33:14;;;;;;;19.97;12.33;;;;;;;-1.25;84.44;95828.38;4986717;28;20193;-78
2023/01/27 10:35:59;;;;;;;18.87;11.90;;;;;;;-1.10;85.00;95832.78;4998230;28;20281;-78
2023/01/27 10:38:42;;;;;;;18.43;11.67;;;;;;;-1.25;84.28;95836.84;5001907;28;20201;-78
2023/01/27 10:41:29;;;;;;;21.47;11.63;;;;;;;-1.53;84.34;95836.41;5019466;28;20221;-78
2023/01/27 10:44:11;;;;;;;21.00;12.43;;;;;;;-1.40;84.17;95836.72;5053150;28;20246;-78
2023/01/27 10:46:54;;;;;;;17.00;9.33;;;;;;;-1.91;86.00;95833.81;5069850;28;20186;-78
2023/01/27 10:49:30;;;;;;;22.93;12.83;;;;;;;-1.58;85.92;95826.44;5052327;28;20224;-78
2023/01/27 10:52:01;;;;;;;18.87;12.00;;;;;;;-1.31;84.20;95832.03;5038581;28;20693;-77
2023/01/27 10:54:47;;;;;;;20.80;12.03;;;;;;;-0.91;83.86;95838.66;5042547;28;20186;-78
2023/01/27 10:57:19;;;;;;;18.50;11.60;;;;;;;-0.76;82.94;95828.66;5066179;28;20191;-79
2023/01/27 11:00:05;;;;;;;18.57;10.70;;;;;;;-0.76;81.73;95828.66;5037497;28;20201;-79
2023/01/27 11:02:44;;;;;;;14.83;9.37;;;;;;;-0.81;81.18;95826.31;5060589;28;20188;-79
2023/01/27 11:05:27;;;;;;;12.07;8.37;;;;;;;-1.38;82.48;95829.81;5045141;28;20240;-78
2023/01/27 11:08:06;;;;;;;19.20;11.63;;;;;;;-1.64;84.66;95833.53;5055137;28;20193;-79
2023/01/27 11:10:38;;;;;;;16.80;11.53;;;;;;;-1.38;84.86;95842.56;5052787;28;20236;-79
2023/01/27 11:13:04;;;;;;;16.43;11.03;;;;;;;-1.27;84.05;95845.44;5056838;28;20205;-79
2023/01/27 11:15:33;;;;;;;13.23;9.57;;;;;;;-1.07;82.99;95842.81;5050680;28;20182;-78
2023/01/27 11:18:14;;;;;;;18.77;9.87;;;;;;;-1.05;83.69;95842.78;5042293;28;20193;-78
2023/01/27 11:20:42;;;;;;;16.73;10.23;;;;;;;-1.42;83.21;95839.31;5052967;28;20203;-79
2023/01/27 11:23:20;;;;;;;17.77;11.23;;;;;;;-1.43;84.12;95832.56;5060240;28;20188;-80
2023/01/27 11:25:57;;;;;;;19.33;11.17;;;;;;;-1.53;84.74;95836.41;5054035;28;20788;-79
2023/01/27 11:28:46;;;;;;;20.30;11.57;;;;;;;-1.32;83.54;95832.94;5049715;28;20190;-79
2023/01/27 11:31:34;;;;;;;19.73;11.43;;;;;;;-1.46;84.51;95837.81;5067342;28;20223;-79
2023/01/27 11:34:21;;;;;;;23.83;12.70;;;;;;;-1.67;85.15;95839.59;5061727;28;20227;-79
2023/01/27 11:36:46;;;;;;;23.73;13.53;;;;;;;-1.89;86.92;95841.38;5056260;28;20255;-79
2023/01/27 11:39:13;;;;;;;20.97;11.93;;;;;;;-1.86;86.86;95839.53;5055206;28;20812;-79
2023/01/27 11:41:46;;;;;;;19.87;11.90;;;;;;;-1.83;86.66;95836.88;5061485;28;20206;-79
2023/01/27 11:44:18;;;;;;;30.83;16.37;;;;;;;-1.60;86.43;95829.94;5048458;28;20224;-79
2023/01/27 11:46:44;;;;;;;19.23;11.50;;;;;;;-1.76;86.57;95824.72;5062971;28;20174;-79
2023/01/27 11:49:09;;;;;;;24.20;12.27;;;;;;;-1.45;85.71;95819.06;5047430;28;20202;-79
2023/01/27 11:51:38;;;;;;;20.90;11.70;;;;;;;-1.26;84.73;95806.34;5054820;28;20238;-78
2023/01/27 11:54:12;;;;;;;20.67;12.37;;;;;;;-1.19;84.68;95812.81;5039182;28;20183;-78
2023/01/27 11:56:38;;;;;;;29.77;15.57;;;;;;;-1.44;84.31;95813.91;5036170;28;20248;-79
2023/01/27 11:59:04;;;;;;;20.63;11.40;;;;;;;-1.32;84.97;95816.81;5048099;28;20186;-81
2023/01/27 12:01:43;;;;;;;40.97;20.33;;;;;;;-1.43;85.58;95818.09;5057727;28;20194;-79